createdAt,value
2023-05-03T00:00:30.829Z,10.60
2023-05-03T00:02:59.080Z,10.60
2023-05-03T00:05:26.549Z,10.50
2023-05-03T00:07:53.374Z,10.50
2023-05-03T00:10:20.280Z,10.50
2023-05-03T00:12:47.144Z,10.50
2023-05-03T00:15:14.075Z,10.50
2023-05-03T00:17:41.056Z,10.50
2023-05-03T00:20:10.031Z,10.40
2023-05-03T00:22:36.889Z,10.40
2023-05-03T00:25:04.712Z,10.40
2023-05-03T00:27:31.621Z,10.30
2023-05-03T00:29:58.462Z,10.30
2023-05-03T00:32:26.108Z,10.30
2023-05-03T00:34:53.824Z,10.20
2023-05-03T00:37:22.133Z,10.20
2023-05-03T00:39:49.074Z,10.20
2023-05-03T00:42:15.977Z,10.20
2023-05-03T00:44:42.921Z,10.10
2023-05-03T00:47:10.732Z,10.10
2023-05-03T00:49:38.296Z,10.10
2023-05-03T00:52:06.627Z,10.10
2023-05-03T00:54:36.004Z,10.00
2023-05-03T00:57:05.106Z,10.00
2023-05-03T00:59:32.834Z,10.00
2023-05-03T01:02:00.295Z,10.00
2023-05-03T01:04:28.108Z,10.00
2023-05-03T01:07:04.926Z,9.90
2023-05-03T01:09:39.672Z,9.90
2023-05-03T01:12:20.854Z,9.90
2023-05-03T01:14:58.799Z,9.80
2023-05-03T01:17:29.019Z,9.80
2023-05-03T01:20:02.174Z,9.80
2023-05-03T01:22:37.202Z,9.80
2023-05-03T01:25:09.208Z,9.80
2023-05-03T01:27:36.529Z,9.80
2023-05-03T01:30:05.908Z,9.70
2023-05-03T01:32:40.938Z,9.70
2023-05-03T01:35:12.591Z,9.70
2023-05-03T01:37:39.946Z,9.60
2023-05-03T01:40:10.983Z,9.60
2023-05-03T01:42:39.186Z,9.60
2023-05-03T01:45:07.196Z,9.60
2023-05-03T01:47:35.509Z,9.50
2023-05-03T01:50:02.501Z,9.50
2023-05-03T01:52:30.311Z,9.50
2023-05-03T01:54:57.582Z,9.50
2023-05-03T01:57:26.041Z,9.50
2023-05-03T01:59:53.103Z,9.50
2023-05-03T02:02:19.958Z,9.50
2023-05-03T02:04:47.351Z,9.50
2023-05-03T02:07:14.258Z,9.40
2023-05-03T02:09:41.205Z,9.40
2023-05-03T02:12:08.256Z,9.40
2023-05-03T02:14:36.474Z,9.40
2023-05-03T02:17:03.547Z,9.40
2023-05-03T02:19:30.592Z,9.30
2023-05-03T02:21:57.462Z,9.30
2023-05-03T02:24:24.355Z,9.30
2023-05-03T02:26:51.344Z,9.30
2023-05-03T02:29:18.178Z,9.30
2023-05-03T02:31:46.337Z,9.30
2023-05-03T02:34:13.144Z,9.30
2023-05-03T02:36:39.936Z,9.30
2023-05-03T02:39:07.237Z,9.20
2023-05-03T02:41:34.072Z,9.30
2023-05-03T02:44:00.926Z,9.30
2023-05-03T02:46:27.803Z,9.30
2023-05-03T02:48:56.016Z,9.30
2023-05-03T02:51:22.815Z,9.30
2023-05-03T02:53:49.607Z,9.30
2023-05-03T02:56:16.463Z,9.30
2023-05-03T02:58:43.281Z,9.30
2023-05-03T03:01:11.389Z,9.30
2023-05-03T03:03:38.280Z,9.30
2023-05-03T03:06:07.126Z,9.30
2023-05-03T03:08:33.988Z,9.30
2023-05-03T03:11:00.918Z,9.30
2023-05-03T03:13:27.812Z,9.30
2023-05-03T03:15:55.045Z,9.30
2023-05-03T03:18:21.882Z,9.30
2023-05-03T03:20:48.686Z,9.30
2023-05-03T03:23:16.870Z,9.30
2023-05-03T03:25:43.641Z,9.30
2023-05-03T03:28:10.541Z,9.30
2023-05-03T03:30:37.380Z,9.30
2023-05-03T03:33:04.515Z,9.20
2023-05-03T03:35:31.892Z,9.20
2023-05-03T03:37:58.793Z,9.20
2023-05-03T03:40:26.953Z,9.20
2023-05-03T03:42:53.753Z,9.20
2023-05-03T03:45:20.582Z,9.20
2023-05-03T03:47:47.386Z,9.20
2023-05-03T03:50:14.382Z,9.20
2023-05-03T03:52:41.266Z,9.20
2023-05-03T03:55:08.305Z,9.20
2023-05-03T03:57:36.453Z,9.20
2023-05-03T04:00:05.594Z,9.20
2023-05-03T04:02:32.855Z,9.20
2023-05-03T04:04:59.874Z,9.20
2023-05-03T04:07:27.614Z,9.20
2023-05-03T04:09:54.520Z,9.20
2023-05-03T04:12:21.329Z,9.20
2023-05-03T04:14:50.090Z,9.10
2023-05-03T04:17:16.940Z,9.10
2023-05-03T04:19:44.252Z,9.10
2023-05-03T04:22:11.105Z,9.10
2023-05-03T04:24:39.680Z,9.10
2023-05-03T04:27:06.552Z,9.10
2023-05-03T04:29:33.419Z,9.10
2023-05-03T04:32:02.353Z,9.10
2023-05-03T04:34:30.209Z,9.10
2023-05-03T04:36:57.321Z,9.10
2023-05-03T04:39:24.662Z,9.10
2023-05-03T04:41:51.439Z,9.10
2023-05-03T04:44:18.768Z,9.20
2023-05-03T04:46:46.166Z,9.20
2023-05-03T04:49:15.618Z,9.20
2023-05-03T04:51:42.455Z,9.20
2023-05-03T04:54:09.286Z,9.20
2023-05-03T04:56:36.140Z,9.20
2023-05-03T04:59:04.385Z,9.20
2023-05-03T05:01:31.210Z,9.20
2023-05-03T05:03:58.193Z,9.30
2023-05-03T05:06:27.318Z,9.30
2023-05-03T05:08:54.125Z,9.40
2023-05-03T05:11:22.211Z,9.40
2023-05-03T05:13:49.091Z,9.40
2023-05-03T05:16:16.334Z,9.40
2023-05-03T05:18:43.355Z,9.60
2023-05-03T05:21:10.191Z,9.50
2023-05-03T05:23:38.405Z,9.60
2023-05-03T05:26:05.554Z,9.60
2023-05-03T05:28:32.843Z,9.70
2023-05-03T05:30:59.690Z,9.70
2023-05-03T05:33:26.695Z,9.80
2023-05-03T05:35:53.679Z,9.90
2023-05-03T05:38:20.702Z,9.90
2023-05-03T05:40:48.929Z,10.00
2023-05-03T05:43:15.689Z,10.10
2023-05-03T05:45:42.612Z,10.10
2023-05-03T05:48:09.486Z,10.20
2023-05-03T05:50:36.576Z,10.30
2023-05-03T05:53:03.509Z,10.30
2023-05-03T05:55:30.723Z,10.40
2023-05-03T05:57:58.953Z,10.50
2023-05-03T06:00:26.113Z,10.50
2023-05-03T06:02:52.999Z,10.60
2023-05-03T06:05:21.074Z,10.70
2023-05-03T06:07:48.443Z,10.70
2023-05-03T06:10:15.622Z,10.80
2023-05-03T06:12:43.011Z,10.80
2023-05-03T06:15:11.364Z,10.80
2023-05-03T06:17:38.240Z,10.80
2023-05-03T06:20:06.742Z,10.80
2023-05-03T06:22:33.728Z,10.80
2023-05-03T06:25:00.796Z,10.80
2023-05-03T06:27:27.635Z,10.90
2023-05-03T06:29:54.433Z,10.90
2023-05-03T06:32:23.368Z,11.00
2023-05-03T06:34:50.737Z,11.10
2023-05-03T06:37:17.675Z,11.10
2023-05-03T06:39:44.613Z,11.20
2023-05-03T06:42:11.599Z,11.20
2023-05-03T06:44:38.389Z,11.30
2023-05-03T06:47:05.285Z,11.30
2023-05-03T06:49:33.795Z,11.40
2023-05-03T06:52:00.816Z,11.50
2023-05-03T06:54:27.751Z,11.60
2023-05-03T06:56:54.626Z,11.70
2023-05-03T06:59:21.433Z,11.70
2023-05-03T07:01:48.282Z,11.90
2023-05-03T07:04:15.297Z,12.00
2023-05-03T07:06:55.294Z,12.10
2023-05-03T07:09:35.433Z,12.20
2023-05-03T07:12:08.786Z,12.40
2023-05-03T07:14:36.502Z,12.60
2023-05-03T07:17:03.504Z,12.70
2023-05-03T07:19:30.554Z,12.90
2023-05-03T07:21:58.971Z,13.00
2023-05-03T07:24:26.113Z,13.00
2023-05-03T07:26:53.085Z,13.10
2023-05-03T07:29:20.050Z,13.10
2023-05-03T07:31:47.271Z,13.20
2023-05-03T07:34:14.347Z,13.30
2023-05-03T07:36:41.324Z,13.40
2023-05-03T07:39:09.587Z,13.60
2023-05-03T07:41:37.031Z,13.70
2023-05-03T07:44:04.331Z,13.80
2023-05-03T07:46:34.876Z,13.90
2023-05-03T07:49:01.986Z,14.10
2023-05-03T07:51:29.063Z,14.30
2023-05-03T07:53:59.181Z,14.40
2023-05-03T07:56:28.985Z,14.70
2023-05-03T07:59:07.691Z,14.80
2023-05-03T08:01:36.787Z,14.80
2023-05-03T08:04:04.631Z,14.90
2023-05-03T08:06:32.548Z,14.70
2023-05-03T08:08:59.559Z,14.90
2023-05-03T08:11:31.816Z,14.90
2023-05-03T08:13:58.707Z,15.00
2023-05-03T08:16:26.221Z,15.10
2023-05-03T08:18:53.153Z,15.30
2023-05-03T08:21:20.109Z,15.40
2023-05-03T08:23:47.488Z,15.40
2023-05-03T08:26:14.631Z,15.50
2023-05-03T08:28:42.915Z,15.60
2023-05-03T08:31:09.933Z,15.60
2023-05-03T08:33:37.143Z,15.60
2023-05-03T08:36:04.303Z,15.70
2023-05-03T08:38:31.434Z,15.80
2023-05-03T08:41:04.989Z,15.90
2023-05-03T08:43:34.748Z,16.00
2023-05-03T08:46:03.241Z,16.10
2023-05-03T08:48:31.322Z,16.30
2023-05-03T08:51:00.107Z,16.30
2023-05-03T08:53:27.045Z,16.40
2023-05-03T08:55:54.145Z,16.60
2023-05-03T08:58:21.524Z,16.80
2023-05-03T09:00:48.433Z,16.90
2023-05-03T09:03:16.824Z,17.00
2023-05-03T09:05:45.014Z,17.10
2023-05-03T09:08:13.697Z,17.30
2023-05-03T09:10:42.617Z,17.20
2023-05-03T09:13:10.443Z,17.30
2023-05-03T09:15:37.484Z,17.60
2023-05-03T09:18:09.000Z,17.70
2023-05-03T09:20:39.603Z,17.80
2023-05-03T09:23:07.078Z,17.90
2023-05-03T09:25:47.736Z,18.10
2023-05-03T09:28:15.575Z,18.20
2023-05-03T09:30:43.092Z,18.20
2023-05-03T09:33:11.475Z,18.00
2023-05-03T09:35:56.447Z,17.70
2023-05-03T09:38:27.370Z,17.60
2023-05-03T09:40:54.330Z,17.60
2023-05-03T09:43:21.160Z,17.90
2023-05-03T09:45:48.228Z,17.90
2023-05-03T09:48:16.897Z,17.90
2023-05-03T09:50:45.540Z,17.90
2023-05-03T09:53:12.994Z,18.00
2023-05-03T09:55:41.043Z,18.10
2023-05-03T09:58:08.551Z,18.40
2023-05-03T10:00:39.631Z,18.50
2023-05-03T10:03:09.377Z,18.50
2023-05-03T10:05:43.921Z,18.50
2023-05-03T10:08:19.691Z,18.60
2023-05-03T10:10:54.273Z,18.50
2023-05-03T10:13:22.752Z,18.70
2023-05-03T10:15:53.677Z,18.70
2023-05-03T10:18:22.178Z,18.80
2023-05-03T10:20:54.918Z,18.70
2023-05-03T10:23:23.285Z,18.70
2023-05-03T10:26:15.397Z,18.60
2023-05-03T10:28:43.444Z,18.50
2023-05-03T10:31:43.896Z,18.60
2023-05-03T10:34:21.487Z,18.70
2023-05-03T10:36:50.482Z,18.90
2023-05-03T10:39:19.552Z,19.10
2023-05-03T10:41:58.464Z,19.30
2023-05-03T10:44:34.400Z,19.50
2023-05-03T10:47:11.326Z,19.70
2023-05-03T10:49:38.228Z,20.00
2023-05-03T10:52:39.094Z,20.20
2023-05-03T10:55:10.996Z,20.40
2023-05-03T10:57:40.268Z,20.60
2023-05-03T11:00:13.897Z,20.70
2023-05-03T11:02:55.135Z,20.70
2023-05-03T11:05:24.144Z,20.70
2023-05-03T11:07:51.090Z,20.70
2023-05-03T11:10:19.998Z,20.80
2023-05-03T11:12:48.712Z,20.70
2023-05-03T11:15:15.709Z,20.70
2023-05-03T11:17:42.618Z,20.80
2023-05-03T11:20:11.456Z,20.90
2023-05-03T11:22:38.340Z,21.10
2023-05-03T11:25:06.849Z,21.30
2023-05-03T11:27:34.945Z,21.60
2023-05-03T11:30:01.813Z,21.60
2023-05-03T11:32:30.764Z,21.70
2023-05-03T11:34:59.201Z,21.50
2023-05-03T11:37:26.961Z,21.50
2023-05-03T11:39:53.825Z,21.60
2023-05-03T11:42:21.196Z,21.80
2023-05-03T11:44:49.443Z,22.00
2023-05-03T11:47:16.341Z,22.20
2023-05-03T11:49:52.308Z,22.60
2023-05-03T11:52:21.833Z,23.00
2023-05-03T11:54:48.838Z,23.00
2023-05-03T11:57:16.243Z,23.10
2023-05-03T11:59:44.912Z,23.10
2023-05-03T12:02:14.610Z,23.40
2023-05-03T12:04:44.849Z,23.60
2023-05-03T12:07:15.360Z,23.60
2023-05-03T12:09:47.133Z,23.50
2023-05-03T12:12:23.867Z,23.40
2023-05-03T12:14:58.413Z,23.40
2023-05-03T12:17:38.828Z,23.60
2023-05-03T12:21:05.119Z,23.90
2023-05-03T12:23:09.564Z,23.90
2023-05-03T12:25:39.790Z,23.50
2023-05-03T12:28:19.585Z,23.20
2023-05-03T12:30:48.017Z,22.90
2023-05-03T12:33:17.307Z,22.80
2023-05-03T12:35:47.805Z,22.60
2023-05-03T12:38:17.035Z,22.40
2023-05-03T12:40:48.637Z,22.20
2023-05-03T12:43:16.138Z,22.10
2023-05-03T12:45:46.938Z,22.10
2023-05-03T12:48:24.979Z,22.10
2023-05-03T12:50:52.406Z,22.00
2023-05-03T12:53:19.564Z,21.90
2023-05-03T12:55:51.540Z,21.80
2023-05-03T13:01:27.272Z,21.80
2023-05-03T13:03:43.440Z,22.00
2023-05-03T13:06:13.910Z,22.20
2023-05-03T13:08:49.629Z,22.30
2023-05-03T13:11:19.267Z,22.30
2023-05-03T13:13:46.629Z,22.30
2023-05-03T13:16:14.422Z,22.30
2023-05-03T13:18:45.540Z,22.30
2023-05-03T13:21:12.373Z,22.20
2023-05-03T13:23:39.169Z,22.20
2023-05-03T13:26:06.961Z,22.30
2023-05-03T13:28:33.825Z,22.30
2023-05-03T13:31:00.710Z,22.30
2023-05-03T13:33:28.638Z,22.30
2023-05-03T13:35:57.432Z,22.40
2023-05-03T13:38:24.525Z,22.40
2023-05-03T13:40:52.874Z,22.30
2023-05-03T13:43:20.024Z,22.10
2023-05-03T13:45:46.853Z,22.10
2023-05-03T13:48:18.652Z,22.10
2023-05-03T13:50:46.302Z,22.00
2023-05-03T13:53:14.927Z,22.00
2023-05-03T13:55:41.861Z,22.00
2023-05-03T13:58:08.860Z,22.10
2023-05-03T14:00:36.210Z,22.00
2023-05-03T14:03:04.278Z,21.90
2023-05-03T14:05:31.171Z,22.00
2023-05-03T14:07:58.877Z,22.00
2023-05-03T14:10:28.192Z,22.10
2023-05-03T14:12:58.231Z,22.20
2023-05-03T14:15:25.051Z,22.20
2023-05-03T14:17:52.102Z,22.10
2023-05-03T14:20:19.990Z,22.00
2023-05-03T14:22:47.413Z,22.00
2023-05-03T14:25:14.348Z,22.10
2023-05-03T14:27:43.878Z,22.10
2023-05-03T14:30:11.636Z,22.20
2023-05-03T14:32:38.604Z,22.20
2023-05-03T14:35:06.693Z,22.30
2023-05-03T14:37:33.749Z,22.30
2023-05-03T14:40:00.805Z,22.40
2023-05-03T14:42:30.188Z,22.40
2023-05-03T14:44:58.413Z,22.30
2023-05-03T14:47:25.362Z,22.20
2023-05-03T14:49:52.501Z,22.10
2023-05-03T14:52:19.458Z,22.10
2023-05-03T14:54:46.557Z,22.10
2023-05-03T14:57:13.413Z,22.10
2023-05-03T14:59:40.403Z,22.20
2023-05-03T15:02:10.295Z,22.30
2023-05-03T15:04:37.704Z,22.30
2023-05-03T15:07:06.466Z,22.40
2023-05-03T15:09:33.811Z,22.40
2023-05-03T15:12:01.998Z,22.30
2023-05-03T15:14:29.171Z,22.30
2023-05-03T15:16:56.280Z,22.30
2023-05-03T15:19:24.729Z,22.30
2023-05-03T15:21:52.012Z,22.30
2023-05-03T15:24:18.928Z,22.30
2023-05-03T15:26:46.727Z,22.10
2023-05-03T15:29:13.915Z,22.10
2023-05-03T15:31:41.115Z,22.00
2023-05-03T15:34:07.964Z,22.00
2023-05-03T15:36:37.659Z,22.00
2023-05-03T15:39:04.699Z,22.00
2023-05-03T15:41:31.569Z,22.10
2023-05-03T15:43:59.545Z,22.10
2023-05-03T15:46:26.453Z,22.10
2023-05-03T15:48:54.935Z,22.00
2023-05-03T15:51:21.781Z,22.00
2023-05-03T15:53:50.094Z,21.90
2023-05-03T15:56:17.000Z,21.90
2023-05-03T15:58:43.962Z,21.80
2023-05-03T16:01:10.870Z,21.70
2023-05-03T16:03:37.771Z,21.70
2023-05-03T16:06:05.914Z,21.70
2023-05-03T16:08:32.921Z,21.70
2023-05-03T16:11:01.544Z,21.70
2023-05-03T16:13:28.993Z,21.70
2023-05-03T16:15:56.856Z,21.70
2023-05-03T16:18:24.319Z,21.70
2023-05-03T16:20:51.257Z,21.60
2023-05-03T16:23:18.108Z,21.50
2023-05-03T16:25:45.296Z,21.40
2023-05-03T16:28:13.631Z,21.40
2023-05-03T16:30:40.969Z,21.30
2023-05-03T16:33:07.948Z,21.30
2023-05-03T16:35:35.209Z,21.30
2023-05-03T16:38:02.864Z,21.20
2023-05-03T16:40:30.061Z,21.20
2023-05-03T16:42:58.147Z,21.10
2023-05-03T16:45:26.361Z,21.10
2023-05-03T16:47:53.306Z,21.10
2023-05-03T16:50:20.603Z,21.10
2023-05-03T16:52:47.455Z,21.00
2023-05-03T16:55:14.481Z,21.00
2023-05-03T16:57:41.728Z,20.90
2023-05-03T17:00:11.163Z,20.90
2023-05-03T17:02:40.372Z,20.80
2023-05-03T17:05:08.303Z,20.70
2023-05-03T17:07:35.692Z,20.70
2023-05-03T17:10:03.629Z,20.60
2023-05-03T17:12:31.232Z,20.60
2023-05-03T17:14:58.254Z,20.60
2023-05-03T17:17:25.128Z,20.50
2023-05-03T17:19:53.520Z,20.40
2023-05-03T17:22:20.680Z,20.40
2023-05-03T17:24:47.634Z,20.30
2023-05-03T17:27:14.690Z,20.30
2023-05-03T17:29:41.564Z,20.20
2023-05-03T17:32:08.405Z,20.20
2023-05-03T17:34:36.164Z,20.10
2023-05-03T17:37:05.550Z,20.10
2023-05-03T17:39:32.962Z,20.10
2023-05-03T17:41:59.865Z,20.10
2023-05-03T17:44:27.836Z,20.00
2023-05-03T17:46:54.826Z,20.00
2023-05-03T17:49:21.761Z,20.00
2023-05-03T17:51:49.237Z,20.10
2023-05-03T17:54:17.446Z,19.90
2023-05-03T17:56:44.808Z,19.90
2023-05-03T17:59:11.647Z,19.80
2023-05-03T18:01:38.528Z,19.80
2023-05-03T18:04:05.398Z,19.80
2023-05-03T18:06:32.396Z,19.70
2023-05-03T18:08:59.232Z,19.70
2023-05-03T18:11:27.658Z,19.70
2023-05-03T18:13:54.472Z,19.60
2023-05-03T18:16:21.411Z,19.60
2023-05-03T18:18:48.446Z,19.50
2023-05-03T18:21:15.307Z,19.50
2023-05-03T18:23:43.148Z,19.50
2023-05-03T18:26:11.383Z,19.40
2023-05-03T18:28:39.556Z,19.30
2023-05-03T18:31:06.845Z,19.30
2023-05-03T18:33:34.038Z,19.30
2023-05-03T18:36:02.893Z,19.20
2023-05-03T18:38:29.817Z,19.20
2023-05-03T18:40:56.963Z,19.10
2023-05-03T18:43:23.942Z,19.00
2023-05-03T18:45:52.284Z,19.00
2023-05-03T18:48:19.252Z,19.00
2023-05-03T18:50:46.374Z,18.90
2023-05-03T18:53:14.088Z,18.80
2023-05-03T18:55:42.140Z,18.70
2023-05-03T18:58:10.406Z,18.60
2023-05-03T19:00:39.508Z,18.60
2023-05-03T19:03:09.174Z,18.50
2023-05-03T19:05:36.248Z,18.40
2023-05-03T19:08:03.173Z,18.30
2023-05-03T19:10:30.145Z,18.20
2023-05-03T19:12:57.601Z,18.20
2023-05-03T19:15:25.108Z,18.10
2023-05-03T19:17:52.092Z,18.00
2023-05-03T19:20:20.315Z,17.90
2023-05-03T19:22:47.520Z,17.80
2023-05-03T19:25:15.054Z,17.80
2023-05-03T19:27:42.026Z,17.70
2023-05-03T19:30:09.716Z,17.60
2023-05-03T19:32:39.001Z,17.60
2023-05-03T19:35:08.579Z,17.50
2023-05-03T19:37:37.458Z,17.40
2023-05-03T19:40:06.239Z,17.40
2023-05-03T19:42:33.576Z,17.30
2023-05-03T19:45:02.917Z,17.30
2023-05-03T19:47:30.030Z,17.20
2023-05-03T19:49:57.207Z,17.20
2023-05-03T19:52:24.164Z,17.10
2023-05-03T19:54:52.470Z,17.10
2023-05-03T19:57:19.644Z,17.00
2023-05-03T19:59:47.941Z,17.00
2023-05-03T20:02:14.866Z,16.90
2023-05-03T20:04:42.491Z,16.90
2023-05-03T20:07:09.429Z,16.90
2023-05-03T20:09:36.777Z,16.80
2023-05-03T20:12:05.921Z,16.70
2023-05-03T20:14:32.793Z,16.70
2023-05-03T20:16:59.792Z,16.70
2023-05-03T20:19:27.701Z,16.70
2023-05-03T20:21:54.840Z,16.60
2023-05-03T20:24:22.168Z,16.60
2023-05-03T20:26:49.144Z,16.60
2023-05-03T20:29:18.268Z,16.50
2023-05-03T20:31:48.068Z,16.50
2023-05-03T20:34:15.592Z,16.50
2023-05-03T20:36:42.477Z,16.50
2023-05-03T20:39:09.864Z,16.40
2023-05-03T20:41:37.780Z,16.40
2023-05-03T20:44:05.671Z,16.40
2023-05-03T20:46:35.208Z,16.40
2023-05-03T20:49:02.309Z,16.30
2023-05-03T20:51:29.230Z,16.30
2023-05-03T20:53:56.134Z,16.20
2023-05-03T20:56:22.970Z,16.20
2023-05-03T20:58:49.939Z,16.20
2023-05-03T21:01:17.743Z,16.10
2023-05-03T21:03:46.111Z,16.10
2023-05-03T21:06:12.950Z,16.00
2023-05-03T21:08:39.941Z,16.00
2023-05-03T21:11:06.874Z,15.90
2023-05-03T21:13:35.652Z,15.90
2023-05-03T21:16:03.192Z,15.80
2023-05-03T21:18:30.026Z,15.80
2023-05-03T21:20:58.219Z,15.70
2023-05-03T21:23:25.111Z,15.70
2023-05-03T21:25:55.209Z,15.70
2023-05-03T21:28:23.015Z,15.60
2023-05-03T21:30:50.005Z,15.60
2023-05-03T21:33:16.910Z,15.60
2023-05-03T21:35:43.808Z,15.60
2023-05-03T21:38:12.137Z,15.50
2023-05-03T21:40:38.952Z,15.50
2023-05-03T21:43:07.563Z,15.40
2023-05-03T21:45:34.488Z,15.40
2023-05-03T21:48:02.103Z,15.40
2023-05-03T21:50:28.922Z,15.40
2023-05-03T21:52:55.825Z,15.30
2023-05-03T21:55:24.193Z,15.30
2023-05-03T21:57:51.327Z,15.20
2023-05-03T22:00:20.702Z,15.20
2023-05-03T22:02:48.612Z,15.20
2023-05-03T22:05:15.767Z,15.20
2023-05-03T22:07:42.702Z,15.20
2023-05-03T22:10:10.060Z,15.10
2023-05-03T22:12:38.238Z,15.10
2023-05-03T22:15:06.176Z,15.10
2023-05-03T22:17:33.076Z,15.10
2023-05-03T22:19:59.938Z,15.10
2023-05-03T22:22:26.827Z,15.00
2023-05-03T22:24:54.513Z,15.00
2023-05-03T22:27:21.401Z,15.00
2023-05-03T22:29:49.601Z,14.90
2023-05-03T22:32:16.381Z,14.90
2023-05-03T22:34:44.509Z,14.90
2023-05-03T22:37:11.934Z,14.90
2023-05-03T22:39:39.478Z,14.80
2023-05-03T22:42:06.346Z,14.80
2023-05-03T22:44:33.522Z,14.80
2023-05-03T22:47:01.803Z,14.80
2023-05-03T22:49:28.584Z,14.80
2023-05-03T22:51:55.514Z,14.70
2023-05-03T22:54:23.156Z,14.70
2023-05-03T22:56:51.071Z,14.70
2023-05-03T22:59:17.920Z,14.60
2023-05-03T23:01:46.130Z,14.60
2023-05-03T23:04:14.450Z,14.50
2023-05-03T23:06:41.237Z,14.50
2023-05-03T23:09:09.644Z,14.40
2023-05-03T23:11:36.422Z,14.40
2023-05-03T23:14:03.362Z,14.30
2023-05-03T23:16:30.262Z,14.40
2023-05-03T23:18:57.513Z,14.20
2023-05-03T23:21:26.122Z,14.20
2023-05-03T23:23:52.911Z,14.10
2023-05-03T23:26:20.015Z,14.10
2023-05-03T23:28:48.573Z,14.10
2023-05-03T23:31:15.974Z,14.00
2023-05-03T23:33:43.209Z,14.00
2023-05-03T23:36:10.072Z,14.00
2023-05-03T23:38:38.297Z,13.90
2023-05-03T23:41:05.252Z,13.90
2023-05-03T23:43:32.100Z,13.90
2023-05-03T23:45:58.884Z,13.90
2023-05-03T23:48:25.958Z,13.90
2023-05-03T23:50:52.866Z,13.90
2023-05-03T23:53:19.649Z,13.90
2023-05-03T23:55:47.888Z,13.80
2023-05-03T23:58:14.694Z,13.80
